Time;durP1;ratioP1;P1;durP2;ratioP2;P2;SDS_P1;SDS_P2;PMS_P1;PMS_P2;Temp;Humidity;BMP_temperature;BMP_pressure;BME280_temperature;BME280_humidity;BME280_pressure;Samples;Min_cycle;Max_cycle;Signal;HPM_P1;HPM_P2
2023/05/14 15:12:06;;;;;;;2.50;2.40;;;23.50;44.60;;;;;;2091204;28;20546;-65
2023/05/14 15:13:08;;;;;;;1.70;1.60;;;23.10;49.30;;;;;;2065608;28;20316;-65
2023/05/14 15:14:08;;;;;;;3.23;3.03;;;22.60;47.30;;;;;;2056305;28;20568;-66
2023/05/14 15:15:09;;;;;;;2.27;1.97;;;22.30;47.40;;;;;;2059516;28;20475;-66
2023/05/14 15:16:11;;;;;;;2.30;2.10;;;21.80;50.40;;;;;;2055219;28;20221;-67
2023/05/14 15:17:12;;;;;;;2.70;1.50;;;21.10;50.50;;;;;;2070571;28;20474;-67
2023/05/14 15:18:14;;;;;;;6.23;5.87;;;20.50;55.10;;;;;;2068603;28;20464;-67
2023/05/14 15:19:15;;;;;;;3.80;3.50;;;20.30;54.70;;;;;;2062791;28;20237;-67
2023/05/14 15:20:17;;;;;;;2.73;2.53;;;20.30;55.50;;;;;;2062117;28;20536;-67
2023/05/14 15:21:18;;;;;;;3.20;3.00;;;20.30;56.60;;;;;;2062697;28;20472;-67
2023/05/14 15:22:18;;;;;;;2.37;1.93;;;20.20;54.30;;;;;;2063515;28;21061;-67
2023/05/14 15:23:19;;;;;;;1.87;1.77;;;19.60;57.90;;;;;;2062963;28;20768;-66
2023/05/14 15:24:22;;;;;;;1.80;1.70;;;19.20;60.20;;;;;;2062772;28;20689;-66
2023/05/14 15:25:25;;;;;;;2.60;2.40;;;19.10;62.30;;;;;;2062498;28;20233;-67
2023/05/14 15:26:26;;;;;;;14.33;13.57;;;18.90;61.30;;;;;;2063225;28;20472;-67
2023/05/14 15:27:27;;;;;;;1.93;1.83;;;18.70;63.90;;;;;;2059236;28;21118;-65
2023/05/14 15:28:28;;;;;;;2.33;2.13;;;18.20;65.80;;;;;;2059768;28;20233;-65
2023/05/14 15:29:30;;;;;;;2.23;2.03;;;17.80;73.10;;;;;;2069253;28;20482;-65
2023/05/14 15:30:31;;;;;;;2.20;2.00;;;17.60;70.50;;;;;;2064806;28;20471;-66
2023/05/14 15:31:40;;;;;;;3.13;2.37;;;17.30;73.60;;;;;;2061816;28;20484;-68
2023/05/14 15:32:42;;;;;;;2.40;2.10;;;17.30;79.40;;;;;;2061323;28;20502;-67
2023/05/14 15:33:42;;;;;;;2.10;1.90;;;17.10;77.20;;;;;;2069319;28;20890;-66
2023/05/14 15:34:43;;;;;;;2.67;2.00;;;17.00;78.00;;;;;;2063620;28;20498;-66
2023/05/14 15:35:44;;;;;;;2.50;2.33;;;17.00;76.90;;;;;;2067033;28;20218;-65
2023/05/14 15:36:45;;;;;;;2.20;2.00;;;17.10;80.70;;;;;;2063762;28;20889;-66
2023/05/14 15:37:46;;;;;;;4.83;2.50;;;17.00;79.70;;;;;;2075381;28;20609;-65
2023/05/14 15:38:47;;;;;;;3.53;2.17;;;17.20;82.90;;;;;;2069215;28;20581;-69
2023/05/14 15:39:47;;;;;;;2.20;2.00;;;17.10;87.60;;;;;;2068341;28;20178;-66
2023/05/14 15:40:49;;;;;;;3.13;2.73;;;17.10;85.20;;;;;;2064476;28;20186;-66
2023/05/14 15:41:50;;;;;;;2.40;2.17;;;17.10;83.50;;;;;;2059421;28;20192;-66
2023/05/14 15:42:51;;;;;;;2.70;2.03;;;16.90;85.60;;;;;;2067747;28;20971;-66
2023/05/14 15:43:51;;;;;;;2.30;2.00;;;16.90;85.80;;;;;;2066238;28;20748;-66
2023/05/14 15:44:52;;;;;;;2.23;2.03;;;16.80;88.60;;;;;;2066482;28;20194;-66
2023/05/14 15:45:53;;;;;;;2.57;2.03;;;16.80;88.20;;;;;;2060261;28;20190;-66
2023/05/14 15:46:54;;;;;;;2.50;2.03;;;16.70;89.50;;;;;;2060563;28;20226;-66
2023/05/14 15:47:56;;;;;;;2.43;2.23;;;16.60;87.20;;;;;;2061237;28;20182;-66
2023/05/14 15:48:57;;;;;;;2.87;2.20;;;16.70;87.80;;;;;;2061611;28;20435;-66
2023/05/14 15:49:58;;;;;;;2.50;2.30;;;16.60;86.70;;;;;;2067698;28;20474;-66
2023/05/14 15:50:59;;;;;;;2.80;2.50;;;16.60;89.20;;;;;;2068316;28;20185;-66
2023/05/14 15:52:01;;;;;;;3.57;2.47;;;16.40;87.40;;;;;;2039442;28;20474;-66
2023/05/14 15:53:02;;;;;;;2.57;2.37;;;16.20;89.70;;;;;;2053769;28;20203;-66
2023/05/14 15:54:03;;;;;;;2.63;2.23;;;16.20;90.80;;;;;;2063277;28;20518;-66
2023/05/14 15:55:05;;;;;;;3.07;2.57;;;16.00;90.90;;;;;;2058486;28;20197;-64
2023/05/14 15:56:06;;;;;;;2.80;2.47;;;15.80;92.50;;;;;;2052310;28;20190;-66
2023/05/14 15:57:07;;;;;;;2.43;2.23;;;15.70;92.10;;;;;;2055978;28;20579;-65
2023/05/14 15:58:08;;;;;;;2.30;2.10;;;15.70;91.80;;;;;;2057241;28;20468;-66
2023/05/14 15:59:09;;;;;;;3.03;2.67;;;15.60;92.10;;;;;;2061676;28;20538;-66
2023/05/14 16:00:13;;;;;;;2.33;2.13;;;15.60;91.60;;;;;;2059947;28;20230;-66
2023/05/14 16:01:17;;;;;;;3.00;2.20;;;15.60;93.00;;;;;;2056612;28;20240;-66
2023/05/14 16:02:18;;;;;;;2.33;2.03;;;15.50;93.20;;;;;;2068260;28;20459;-66
2023/05/14 16:03:20;;;;;;;2.43;2.10;;;15.50;93.30;;;;;;2061904;28;20554;-64
2023/05/14 16:04:21;;;;;;;2.33;2.13;;;15.50;91.70;;;;;;2056203;28;21021;-66
2023/05/14 16:05:21;;;;;;;2.37;2.10;;;15.30;92.80;;;;;;2070513;28;20474;-67
2023/05/14 16:06:22;;;;;;;2.30;2.10;;;15.20;92.00;;;;;;2069203;28;20455;-67
2023/05/14 16:07:24;;;;;;;2.20;2.00;;;15.10;93.00;;;;;;2062510;28;20839;-66
2023/05/14 16:08:25;;;;;;;2.80;2.60;;;15.00;94.30;;;;;;2062234;28;20657;-66
2023/05/14 16:09:26;;;;;;;1.97;1.87;;;14.90;93.20;;;;;;2061120;28;20468;-66
2023/05/14 16:10:26;;;;;;;2.17;1.97;;;14.90;94.50;;;;;;2061440;28;20641;-66
2023/05/14 16:11:28;;;;;;;3.10;2.27;;;14.90;94.80;;;;;;2061984;28;20693;-66
2023/05/14 16:12:29;;;;;;;2.40;1.87;;;15.00;94.30;;;;;;2054027;28;20235;-66
2023/05/14 16:13:30;;;;;;;2.10;1.90;;;15.00;94.20;;;;;;2059472;28;20483;-66
2023/05/14 16:14:36;;;;;;;2.03;1.90;;;15.00;94.00;;;;;;2062085;28;20229;-66
2023/05/14 16:15:38;;;;;;;2.40;1.80;;;14.90;93.10;;;;;;2068066;28;20555;-66
2023/05/14 16:16:39;;;;;;;2.60;2.07;;;15.00;93.20;;;;;;2054970;28;20483;-66
2023/05/14 16:17:40;;;;;;;2.03;1.83;;;15.10;94.60;;;;;;2061670;28;20978;-66
2023/05/14 16:18:42;;;;;;;1.97;1.87;;;15.00;94.30;;;;;;2067457;28;20219;-67
2023/05/14 16:19:42;;;;;;;2.17;1.97;;;14.70;93.90;;;;;;2069297;28;20471;-66
2023/05/14 16:20:44;;;;;;;2.20;2.00;;;14.60;92.70;;;;;;2067850;28;20467;-66
2023/05/14 16:21:45;;;;;;;2.10;1.70;;;14.50;93.00;;;;;;2067477;28;20297;-67
2023/05/14 16:22:45;;;;;;;2.00;1.80;;;14.40;94.70;;;;;;2067704;28;20837;-66
2023/05/14 16:23:46;;;;;;;2.27;2.07;;;14.40;95.50;;;;;;2063845;28;20230;-69
2023/05/14 16:24:47;;;;;;;2.57;1.97;;;14.40;95.60;;;;;;2050622;28;20190;-68
2023/05/14 16:25:49;;;;;;;1.87;1.77;;;14.50;96.00;;;;;;2052123;28;20226;-65
2023/05/14 16:26:50;;;;;;;1.90;1.80;;;14.60;96.20;;;;;;2045414;29;20433;-66
2023/05/14 16:27:53;;;;;;;2.07;1.87;;;14.80;95.20;;;;;;2049244;28;20460;-66
2023/05/14 16:28:53;;;;;;;1.80;1.70;;;14.80;95.20;;;;;;2053220;28;20195;-67
2023/05/14 16:29:54;;;;;;;2.20;2.00;;;14.90;94.50;;;;;;2046906;28;20506;-68
2023/05/14 16:30:55;;;;;;;2.80;2.20;;;15.00;93.10;;;;;;2047512;28;20215;-67
2023/05/14 16:31:57;;;;;;;2.00;1.80;;;15.00;93.50;;;;;;2055411;28;20298;-67
2023/05/14 16:32:57;;;;;;;1.93;1.70;;;15.10;94.00;;;;;;2057253;28;20452;-66
2023/05/14 16:33:59;;;;;;;3.63;2.30;;;15.10;96.10;;;;;;2058157;28;20455;-67
2023/05/14 16:35:01;;;;;;;2.13;1.87;;;15.00;96.50;;;;;;2052218;28;20183;-65
2023/05/14 16:36:02;;;;;;;3.27;2.30;;;14.90;94.00;;;;;;2052948;28;20444;-67
2023/05/14 16:37:03;;;;;;;2.37;2.17;;;14.80;92.80;;;;;;2042416;28;20513;-66
2023/05/14 16:38:04;;;;;;;1.73;1.60;;;14.80;92.00;;;;;;2048028;28;20179;-65
2023/05/14 16:39:06;;;;;;;1.90;1.80;;;14.90;91.10;;;;;;2051251;28;20204;-66
2023/05/14 16:40:10;;;;;;;1.67;1.57;;;15.10;91.90;;;;;;2049445;28;20235;-65
2023/05/14 16:41:11;;;;;;;2.30;1.80;;;15.20;91.10;;;;;;2057610;28;20471;-66
2023/05/14 16:42:13;;;;;;;3.07;2.33;;;15.20;91.10;;;;;;2061478;28;20458;-67
2023/05/14 16:43:14;;;;;;;3.10;2.40;;;15.10;94.40;;;;;;2062874;28;21076;-65
2023/05/14 16:44:14;;;;;;;1.70;1.60;;;15.00;92.40;;;;;;2058572;28;20492;-66
2023/05/14 16:45:15;;;;;;;1.80;1.70;;;15.00;91.80;;;;;;2047781;28;20223;-66
2023/05/14 16:46:16;;;;;;;2.17;1.60;;;15.00;90.40;;;;;;2047444;28;20736;-66
2023/05/14 16:47:17;;;;;;;1.77;1.67;;;15.10;89.00;;;;;;2043779;28;20287;-66
2023/05/14 16:48:18;;;;;;;1.57;1.47;;;15.20;89.00;;;;;;2059300;28;20182;-66
2023/05/14 16:49:26;;;;;;;2.03;1.83;;;15.40;88.40;;;;;;2059325;28;21073;-66
2023/05/14 16:50:32;;;;;;;3.40;1.93;;;15.50;87.90;;;;;;2060735;28;20701;-66
2023/05/14 16:51:33;;;;;;;1.70;1.60;;;15.60;89.90;;;;;;2059717;28;20543;-66
2023/05/14 16:52:34;;;;;;;1.70;1.60;;;14.90;87.60;;;;;;2042065;28;20493;-66
2023/05/14 16:53:35;;;;;;;1.57;1.47;;;15.70;85.80;;;;;;2039888;28;21077;-66
2023/05/14 16:54:39;;;;;;;1.90;1.60;;;15.90;83.60;;;;;;2044971;28;20430;-67
2023/05/14 16:55:39;;;;;;;1.87;1.67;;;16.00;82.10;;;;;;2044345;28;20224;-67
2023/05/14 16:56:41;;;;;;;2.20;1.97;;;16.10;84.20;;;;;;2057895;28;20927;-66
2023/05/14 16:57:42;;;;;;;1.90;1.77;;;15.90;93.60;;;;;;2056557;28;20214;-66
2023/05/14 16:58:43;;;;;;;1.83;1.73;;;15.60;95.70;;;;;;2055570;28;20465;-67
2023/05/14 16:59:44;;;;;;;1.83;1.73;;;15.30;97.40;;;;;;2057912;28;20504;-65
2023/05/14 17:00:44;;;;;;;3.40;1.77;;;15.10;97.70;;;;;;2061457;28;20222;-67
2023/05/14 17:01:46;;;;;;;1.70;1.60;;;15.20;97.20;;;;;;2065137;28;20257;-68
2023/05/14 17:02:48;;;;;;;1.70;1.60;;;15.20;97.00;;;;;;2062290;28;20231;-69
2023/05/14 17:03:49;;;;;;;2.13;1.83;;;15.20;96.70;;;;;;2061207;28;20479;-67
2023/05/14 17:04:50;;;;;;;1.70;1.53;;;15.20;96.60;;;;;;2057394;28;20443;-67
2023/05/14 17:05:51;;;;;;;1.60;1.50;;;15.20;96.40;;;;;;2058307;28;20639;-67
2023/05/14 17:06:52;;;;;;;3.93;1.90;;;15.20;96.90;;;;;;2064103;28;20460;-68
2023/05/14 17:07:53;;;;;;;2.10;1.90;;;15.20;97.00;;;;;;2052120;28;20191;-66
2023/05/14 17:08:54;;;;;;;2.33;1.80;;;15.20;96.30;;;;;;2055041;28;20880;-65
2023/05/14 17:09:56;;;;;;;2.90;1.80;;;15.20;96.50;;;;;;2063736;28;20435;-66
2023/05/14 17:10:57;;;;;;;2.13;1.90;;;15.30;96.00;;;;;;2062170;28;20183;-66
2023/05/14 17:11:58;;;;;;;2.03;1.60;;;15.30;97.40;;;;;;2058488;28;20480;-66
2023/05/14 17:12:59;;;;;;;2.07;1.87;;;15.30;97.10;;;;;;2046250;28;20469;-66
2023/05/14 17:14:00;;;;;;;2.10;1.90;;;15.30;96.90;;;;;;2057261;28;20231;-66
2023/05/14 17:15:01;;;;;;;1.73;1.63;;;15.30;96.80;;;;;;2055300;28;20835;-67
2023/05/14 17:16:02;;;;;;;1.70;1.60;;;15.30;96.50;;;;;;2055449;28;20191;-67
2023/05/14 17:17:04;;;;;;;1.73;1.63;;;15.40;95.20;;;;;;2055405;28;20591;-69
2023/05/14 17:18:06;;;;;;;2.47;1.90;;;15.50;94.10;;;;;;2051177;28;20192;-67
2023/05/14 17:19:07;;;;;;;1.77;1.67;;;15.50;94.50;;;;;;2062683;28;20473;-66
2023/05/14 17:20:10;;;;;;;2.03;1.80;;;15.50;95.80;;;;;;2064571;28;20481;-66
2023/05/14 17:21:11;;;;;;;2.27;1.80;;;15.50;96.60;;;;;;2054710;28;21006;-67
2023/05/14 17:22:12;;;;;;;1.60;1.50;;;15.40;97.50;;;;;;2055537;28;20491;-65
2023/05/14 17:23:13;;;;;;;3.23;1.90;;;15.30;97.70;;;;;;2057961;28;20665;-67
2023/05/14 17:24:14;;;;;;;2.03;1.83;;;15.20;98.10;;;;;;2054918;28;20475;-67
2023/05/14 17:25:15;;;;;;;1.80;1.70;;;15.10;98.50;;;;;;2059741;28;20242;-67
2023/05/14 17:26:16;;;;;;;2.10;1.90;;;15.10;98.70;;;;;;2051421;28;20689;-66
2023/05/14 17:27:20;;;;;;;1.70;1.60;;;15.00;98.20;;;;;;2047775;28;20283;-67
2023/05/14 17:28:23;;;;;;;1.93;1.73;;;15.10;98.10;;;;;;2045619;28;20857;-66
2023/05/14 17:29:23;;;;;;;1.97;1.80;;;15.00;97.60;;;;;;2049914;28;20990;-66
2023/05/14 17:30:24;;;;;;;2.47;2.00;;;15.00;98.70;;;;;;2063534;28;20475;-68
2023/05/14 17:31:26;;;;;;;2.13;1.63;;;14.90;98.30;;;;;;2057827;28;20628;-66
2023/05/14 17:32:28;;;;;;;6.43;2.60;;;14.80;98.20;;;;;;2052728;28;20298;-66
2023/05/14 17:33:30;;;;;;;3.93;1.90;;;14.70;97.80;;;;;;2053906;28;20484;-68
2023/05/14 17:34:31;;;;;;;3.60;2.30;;;14.70;98.80;;;;;;2046044;28;20488;-68
2023/05/14 17:35:34;;;;;;;3.30;2.07;;;14.50;99.00;;;;;;2051236;28;20563;-67
2023/05/14 17:36:35;;;;;;;2.40;1.70;;;14.40;99.30;;;;;;2060053;28;20476;-67
2023/05/14 17:37:37;;;;;;;1.90;1.80;;;14.30;99.20;;;;;;2060844;28;20487;-68
2023/05/14 17:38:38;;;;;;;2.33;1.97;;;14.30;99.90;;;;;;2054152;28;20234;-67
2023/05/14 17:39:40;;;;;;;3.27;1.90;;;14.30;99.90;;;;;;2058958;28;20480;-68
2023/05/14 17:40:41;;;;;;;2.30;2.00;;;14.20;99.90;;;;;;2048349;28;20553;-67
2023/05/14 17:41:42;;;;;;;1.83;1.63;;;14.20;99.90;;;;;;2047287;28;20482;-68
2023/05/14 17:42:44;;;;;;;2.00;1.80;;;14.10;99.90;;;;;;2053429;28;20521;-68
2023/05/14 17:43:46;;;;;;;2.27;2.07;;;14.10;99.90;;;;;;2057683;28;20230;-68
2023/05/14 17:44:47;;;;;;;3.07;2.00;;;14.00;99.90;;;;;;2060470;28;20503;-68
2023/05/14 17:45:48;;;;;;;4.05;3.30;;;13.90;99.90;;;;;;2045928;28;20976;-67
2023/05/14 17:46:49;;;;;;;2.30;2.10;;;14.00;99.90;;;;;;2053223;28;20217;-68
2023/05/14 17:47:50;;;;;;;2.43;2.10;;;13.80;99.90;;;;;;2053424;28;20429;-67
2023/05/14 17:48:52;;;;;;;3.27;2.20;;;13.70;99.90;;;;;;2058433;28;20240;-68
2023/05/14 17:49:53;;;;;;;2.43;2.23;;;13.60;99.90;;;;;;2056528;28;21117;-68
2023/05/14 17:50:54;;;;;;;2.00;1.80;;;13.60;99.90;;;;;;2048083;28;20438;-70
2023/05/14 17:51:55;;;;;;;2.33;2.10;;;13.60;99.90;;;;;;2051391;28;20218;-69
2023/05/14 17:52:56;;;;;;;2.50;2.30;;;13.50;99.90;;;;;;2058486;28;20290;-68
2023/05/14 17:53:56;;;;;;;2.83;1.97;;;13.50;99.90;;;;;;2056859;28;20214;-67
2023/05/14 17:54:57;;;;;;;2.50;2.00;;;13.40;99.90;;;;;;2059181;28;20233;-68
2023/05/14 17:55:58;;;;;;;3.37;2.10;;;13.40;99.90;;;;;;2053075;28;20556;-67
2023/05/14 17:56:59;;;;;;;2.20;2.00;;;13.40;99.90;;;;;;2058002;28;20194;-69
2023/05/14 17:58:00;;;;;;;2.60;2.20;;;13.50;99.90;;;;;;2057373;28;20254;-68
2023/05/14 17:59:00;;;;;;;2.90;1.80;;;13.50;99.90;;;;;;2061726;28;20237;-69
2023/05/14 18:00:03;;;;;;;1.80;1.70;;;13.40;99.90;;;;;;2059570;28;20182;-69
2023/05/14 18:01:04;;;;;;;2.13;1.92;;;13.50;99.90;;;;;;2050961;28;20179;-69
2023/05/14 18:02:06;;;;;;;2.67;2.10;;;13.50;99.90;;;;;;2050788;28;20223;-69
2023/05/14 18:03:07;;;;;;;2.80;2.23;;;13.50;99.90;;;;;;2055657;28;20845;-69
2023/05/14 18:04:08;;;;;;;2.70;2.43;;;13.40;99.90;;;;;;2068103;28;20475;-69
2023/05/14 18:05:09;;;;;;;2.70;2.50;;;13.30;99.90;;;;;;2058314;28;20552;-69
2023/05/14 18:06:10;;;;;;;3.20;2.40;;;13.20;99.90;;;;;;2052870;28;20226;-68
2023/05/14 18:07:11;;;;;;;3.53;2.77;;;13.10;99.90;;;;;;2052709;28;20235;-69
2023/05/14 18:08:13;;;;;;;3.22;2.47;;;12.90;99.90;;;;;;2059097;28;20307;-68
2023/05/14 18:09:14;;;;;;;3.70;2.10;;;12.90;99.90;;;;;;2060581;28;20284;-68
2023/05/14 18:10:18;;;;;;;2.40;2.00;;;12.90;99.90;;;;;;2058067;28;20468;-69
2023/05/14 18:11:20;;;;;;;4.13;2.13;;;13.00;99.90;;;;;;2054177;28;20223;-69
2023/05/14 18:12:20;;;;;;;2.40;2.10;;;13.00;99.90;;;;;;2054996;28;20230;-68
2023/05/14 18:13:21;;;;;;;3.07;2.00;;;13.00;99.90;;;;;;2059084;28;20227;-68
2023/05/14 18:14:23;;;;;;;2.33;2.10;;;13.10;99.90;;;;;;2056281;28;20241;-69
2023/05/14 18:15:26;;;;;;;2.00;1.80;;;13.30;99.90;;;;;;2054712;28;20226;-68
2023/05/14 18:16:28;;;;;;;2.65;2.10;;;13.40;99.90;;;;;;2043920;28;20220;-68
2023/05/14 18:17:28;;;;;;;2.50;2.30;;;13.50;99.90;;;;;;2044624;28;20223;-67
2023/05/14 18:18:30;;;;;;;2.23;2.03;;;13.60;99.90;;;;;;2055317;28;20721;-68
2023/05/14 18:19:31;;;;;;;1.93;1.73;;;13.60;99.90;;;;;;2052886;28;20226;-67
2023/05/14 18:20:32;;;;;;;2.35;1.90;;;13.50;99.90;;;;;;2053957;28;20475;-69
2023/05/14 18:21:33;;;;;;;2.50;2.30;;;13.50;99.90;;;;;;2059494;28;20697;-67
2023/05/14 18:22:34;;;;;;;2.60;2.40;;;13.70;99.90;;;;;;2061930;28;20234;-67
2023/05/14 18:23:35;;;;;;;2.97;2.30;;;13.60;99.90;;;;;;2061897;28;20230;-68
2023/05/14 18:24:35;;;;;;;4.30;2.27;;;13.60;99.90;;;;;;2060034;28;20270;-67
2023/05/14 18:25:38;;;;;;;2.67;2.37;;;13.60;99.90;;;;;;2051331;28;20266;-67
2023/05/14 18:26:38;;;;;;;3.03;2.07;;;13.70;99.90;;;;;;2057285;28;20230;-69
2023/05/14 18:27:43;;;;;;;2.30;2.03;;;13.70;99.90;;;;;;2051749;28;20547;-65
2023/05/14 18:28:44;;;;;;;3.57;2.60;;;13.70;99.90;;;;;;2044442;28;20232;-67
2023/05/14 18:29:45;;;;;;;2.70;2.33;;;13.70;99.90;;;;;;2053974;28;20468;-66
2023/05/14 18:30:46;;;;;;;2.63;2.10;;;13.70;99.90;;;;;;2049189;28;20726;-66
2023/05/14 18:31:46;;;;;;;2.95;2.20;;;13.60;99.90;;;;;;2051124;28;20243;-65
2023/05/14 18:32:47;;;;;;;3.07;2.47;;;13.60;99.90;;;;;;2060399;28;20230;-66
2023/05/14 18:33:48;;;;;;;2.50;2.10;;;13.30;99.90;;;;;;2068866;28;20261;-66
2023/05/14 18:34:50;;;;;;;3.27;2.50;;;13.10;99.90;;;;;;2060776;28;20206;-65
2023/05/14 18:35:52;;;;;;;3.45;2.20;;;13.10;99.90;;;;;;2056414;28;20183;-67
2023/05/14 18:36:54;;;;;;;3.85;2.40;;;13.00;99.90;;;;;;2058132;28;20278;-68
2023/05/14 18:37:55;;;;;;;3.17;2.30;;;13.00;99.90;;;;;;2059312;28;20638;-68
2023/05/14 18:38:56;;;;;;;2.40;2.10;;;12.90;99.90;;;;;;2060071;28;20184;-66
2023/05/14 18:39:57;;;;;;;2.42;2.22;;;12.80;99.90;;;;;;2061581;28;20179;-67
2023/05/14 18:40:58;;;;;;;2.92;2.30;;;12.60;99.90;;;;;;2058309;28;20187;-67
2023/05/14 18:41:58;;;;;;;2.63;2.43;;;12.60;99.90;;;;;;2059240;28;20179;-67
2023/05/14 18:42:59;;;;;;;2.60;2.10;;;12.60;99.90;;;;;;2059575;28;20205;-67
2023/05/14 18:44:02;;;;;;;2.90;2.50;;;12.50;99.90;;;;;;2061326;28;20547;-68
2023/05/14 18:45:03;;;;;;;2.30;2.10;;;12.40;99.90;;;;;;2063055;28;20197;-66
2023/05/14 18:46:05;;;;;;;2.88;2.40;;;12.30;99.90;;;;;;2054152;28;20194;-68
2023/05/14 18:47:07;;;;;;;3.78;2.40;;;12.20;99.90;;;;;;2056723;28;20194;-69
2023/05/14 18:48:09;;;;;;;3.80;2.80;;;12.10;99.90;;;;;;2047675;28;20326;-68
2023/05/14 18:49:09;;;;;;;2.85;2.50;;;12.00;99.90;;;;;;2046831;28;20834;-68
2023/05/14 18:50:11;;;;;;;3.97;2.20;;;12.00;99.90;;;;;;2044517;28;20222;-68
2023/05/14 18:51:11;;;;;;;2.55;2.33;;;11.90;99.90;;;;;;2052236;28;20258;-68
2023/05/14 18:52:12;;;;;;;2.47;2.23;;;11.80;99.90;;;;;;2050223;28;20235;-68
2023/05/14 18:53:13;;;;;;;2.30;2.10;;;11.70;99.90;;;;;;2041514;29;20314;-68
2023/05/14 18:54:15;;;;;;;2.60;2.30;;;11.60;99.90;;;;;;2062701;28;20725;-67
2023/05/14 18:55:16;;;;;;;3.58;2.20;;;11.60;99.90;;;;;;2053409;28;20223;-68
2023/05/14 18:56:16;;;;;;;3.07;2.07;;;11.50;99.90;;;;;;2060012;28;20733;-68
2023/05/14 18:57:18;;;;;;;3.00;2.47;;;11.40;99.90;;;;;;2056550;28;20225;-68
2023/05/14 18:58:19;;;;;;;4.35;2.67;;;11.40;99.90;;;;;;2061138;28;20226;-67
2023/05/14 18:59:20;;;;;;;4.40;2.90;;;11.30;99.90;;;;;;2057264;28;20226;-66
2023/05/14 19:00:20;;;;;;;5.90;3.37;;;11.70;99.90;;;;;;2029300;29;20335;-67
2023/05/14 19:01:24;;;;;;;5.27;2.63;;;11.10;99.90;;;;;;2043417;29;20231;-67
2023/05/14 19:02:27;;;;;;;9.07;3.95;;;11.10;99.90;;;;;;2059646;28;20654;-67
2023/05/14 19:03:28;;;;;;;5.90;3.33;;;11.00;99.90;;;;;;2054446;28;20222;-68
2023/05/14 19:04:29;;;;;;;4.50;3.37;;;10.90;99.90;;;;;;2052726;28;20308;-68
2023/05/14 19:05:30;;;;;;;5.10;3.47;;;11.00;99.90;;;;;;2054307;28;20231;-68
2023/05/14 19:06:31;;;;;;;4.67;3.27;;;10.90;99.90;;;;;;2056842;28;20484;-68
2023/05/14 19:07:32;;;;;;;12.48;5.65;;;10.90;99.90;;;;;;2059499;28;20226;-68
2023/05/14 19:08:33;;;;;;;6.10;3.53;;;10.90;99.90;;;;;;2060210;28;20242;-68
2023/05/14 19:09:34;;;;;;;5.15;3.53;;;10.80;99.90;;;;;;2058348;28;20954;-67
2023/05/14 19:10:34;;;;;;;6.33;4.27;;;10.70;99.90;;;;;;2050164;28;20286;-68
2023/05/14 19:11:35;;;;;;;6.03;3.70;;;10.70;99.90;;;;;;2047123;28;20235;-68
2023/05/14 19:12:36;;;;;;;6.37;4.50;;;10.50;99.90;;;;;;2045427;28;20309;-67
2023/05/14 19:13:38;;;;;;;6.07;4.07;;;10.50;99.90;;;;;;2057952;28;20824;-68
2023/05/14 19:14:39;;;;;;;5.50;3.42;;;10.50;99.90;;;;;;2060977;28;20253;-68
2023/05/14 19:15:40;;;;;;;6.17;3.80;;;10.40;99.90;;;;;;2060033;28;20696;-67
2023/05/14 19:16:42;;;;;;;5.25;3.95;;;10.40;99.90;;;;;;2057069;28;20605;-69
2023/05/14 19:17:42;;;;;;;7.13;4.10;;;10.40;99.90;;;;;;2056369;28;20230;-67
2023/05/14 19:18:43;;;;;;;6.40;4.23;;;10.40;99.90;;;;;;2062720;28;20224;-67
2023/05/14 19:19:44;;;;;;;5.80;3.80;;;10.30;99.90;;;;;;2061837;28;20228;-67
2023/05/14 19:20:45;;;;;;;4.73;3.70;;;10.20;99.90;;;;;;2055294;28;20624;-67
2023/05/14 19:21:46;;;;;;;4.72;3.75;;;10.20;99.90;;;;;;2061734;28;20222;-68
2023/05/14 19:22:47;;;;;;;7.33;4.10;;;10.10;99.90;;;;;;2049084;28;20208;-68
2023/05/14 19:23:48;;;;;;;5.60;3.37;;;10.20;99.90;;;;;;2049150;28;20195;-69
2023/05/14 19:24:50;;;;;;;4.27;3.70;;;10.10;99.90;;;;;;2052490;28;20183;-67
2023/05/14 19:25:52;;;;;;;4.25;3.53;;;10.10;99.90;;;;;;2051917;28;20219;-67
2023/05/14 19:26:53;;;;;;;4.88;3.78;;;10.10;99.90;;;;;;2049128;28;20338;-69
2023/05/14 19:27:55;;;;;;;5.27;3.87;;;10.10;99.90;;;;;;2053285;28;20188;-66
2023/05/14 19:28:59;;;;;;;6.50;4.28;;;10.00;99.90;;;;;;2061649;28;20414;-67
2023/05/14 19:29:59;;;;;;;5.53;4.15;;;10.10;99.90;;;;;;2052530;28;20261;-67
2023/05/14 19:31:00;;;;;;;6.73;4.30;;;10.10;99.90;;;;;;2061188;28;20694;-67
2023/05/14 19:32:01;;;;;;;7.90;5.67;;;10.00;99.90;;;;;;2066260;28;20240;-68
2023/05/14 19:33:03;;;;;;;6.10;4.47;;;10.00;99.90;;;;;;2055617;28;20636;-68
2023/05/14 19:34:03;;;;;;;6.30;5.38;;;9.90;99.90;;;;;;2045562;28;20604;-68
2023/05/14 19:35:05;;;;;;;7.83;5.00;;;9.80;99.90;;;;;;2054947;28;20206;-68
2023/05/14 19:36:06;;;;;;;6.85;4.82;;;9.80;99.90;;;;;;2061386;28;20309;-67
2023/05/14 19:37:09;;;;;;;5.95;4.22;;;9.70;99.90;;;;;;2056940;28;20250;-66
2023/05/14 19:38:10;;;;;;;6.18;4.88;;;9.70;99.90;;;;;;2056069;28;20230;-66
2023/05/14 19:39:11;;;;;;;6.07;4.60;;;9.80;99.90;;;;;;2055034;28;20231;-69
2023/05/14 19:40:12;;;;;;;7.68;5.40;;;9.70;99.90;;;;;;2057104;28;20305;-68
2023/05/14 19:41:13;;;;;;;5.37;4.33;;;9.70;99.90;;;;;;2058281;28;20237;-67
2023/05/14 19:42:14;;;;;;;6.80;5.05;;;9.70;99.90;;;;;;2052885;28;20280;-67
2023/05/14 19:43:16;;;;;;;7.78;5.57;;;9.60;99.90;;;;;;2060809;28;20239;-67
2023/05/14 19:44:16;;;;;;;6.30;4.45;;;9.80;99.90;;;;;;2061544;28;20304;-67
2023/05/14 19:45:17;;;;;;;6.93;5.00;;;9.70;99.90;;;;;;2057371;28;20231;-70
2023/05/14 19:46:18;;;;;;;6.33;4.77;;;9.60;99.90;;;;;;2057796;28;20222;-68
2023/05/14 19:47:21;;;;;;;6.17;4.43;;;9.60;99.90;;;;;;2055601;28;20230;-66
2023/05/14 19:48:22;;;;;;;6.03;4.03;;;9.50;99.90;;;;;;2063101;28;20644;-69
2023/05/14 19:49:23;;;;;;;6.40;4.27;;;9.50;99.90;;;;;;2045342;28;20258;-68
2023/05/14 19:50:24;;;;;;;5.50;4.47;;;9.50;99.90;;;;;;2040992;28;20291;-66
2023/05/14 19:51:25;;;;;;;6.70;3.87;;;9.40;99.90;;;;;;2059467;28;20719;-67
2023/05/14 19:52:26;;;;;;;6.90;4.28;;;9.40;99.90;;;;;;2059806;28;20230;-67
2023/05/14 19:53:29;;;;;;;5.93;4.40;;;9.50;99.90;;;;;;2054304;28;20282;-67
2023/05/14 19:54:31;;;;;;;5.10;4.10;;;9.70;99.90;;;;;;2064757;28;20229;-67
2023/05/14 19:55:32;;;;;;;7.93;4.88;;;9.40;99.90;;;;;;2061567;28;20225;-69
2023/05/14 19:56:32;;;;;;;5.07;3.90;;;9.30;99.90;;;;;;2057336;28;20741;-67
2023/05/14 19:57:33;;;;;;;4.97;3.77;;;9.40;99.90;;;;;;2065291;28;20717;-67
2023/05/14 19:58:34;;;;;;;5.20;3.93;;;9.30;99.90;;;;;;2062652;28;20230;-67
2023/05/14 19:59:35;;;;;;;5.63;4.13;;;9.30;99.90;;;;;;2056836;28;20227;-66
2023/05/14 20:00:36;;;;;;;5.88;3.83;;;9.50;99.90;;;;;;2059402;28;20306;-66
2023/05/14 20:01:37;;;;;;;4.13;3.73;;;9.50;99.90;;;;;;2063658;28;20295;-66
2023/05/14 20:02:40;;;;;;;4.30;3.40;;;9.50;99.90;;;;;;2064804;28;20852;-67
2023/05/14 20:03:41;;;;;;;5.40;4.05;;;9.50;99.90;;;;;;2050486;28;20230;-66
2023/05/14 20:04:43;;;;;;;4.33;3.37;;;9.50;99.90;;;;;;2061298;28;20686;-66
2023/05/14 20:05:44;;;;;;;4.30;3.40;;;9.60;99.90;;;;;;2044485;28;20277;-67
2023/05/14 20:06:46;;;;;;;4.03;3.53;;;9.60;99.90;;;;;;2056327;28;20226;-68
2023/05/14 20:07:47;;;;;;;3.70;3.20;;;9.60;99.90;;;;;;2052127;28;20246;-69
2023/05/14 20:08:50;;;;;;;4.85;3.60;;;9.50;99.90;;;;;;2064527;28;20199;-67
2023/05/14 20:09:53;;;;;;;4.43;3.53;;;9.50;99.90;;;;;;2064066;28;20202;-67
2023/05/14 20:10:54;;;;;;;4.53;3.40;;;9.50;99.90;;;;;;2056671;28;20709;-68
2023/05/14 20:11:55;;;;;;;5.80;3.67;;;9.50;99.90;;;;;;2053799;28;20230;-67
2023/05/14 20:12:55;;;;;;;4.57;3.47;;;9.50;99.90;;;;;;2049697;28;20226;-68
2023/05/14 20:13:56;;;;;;;4.40;3.40;;;9.60;99.90;;;;;;2064197;28;20194;-67
2023/05/14 20:14:57;;;;;;;7.07;4.10;;;9.60;99.90;;;;;;2057636;28;20575;-68
2023/05/14 20:16:00;;;;;;;4.63;3.57;;;9.70;99.90;;;;;;2057792;28;20171;-69
2023/05/14 20:17:02;;;;;;;6.07;4.15;;;9.70;99.90;;;;;;2056162;28;20191;-68
2023/05/14 20:18:03;;;;;;;5.07;3.75;;;9.70;99.90;;;;;;2057424;28;20193;-67
2023/05/14 20:19:05;;;;;;;5.93;3.90;;;9.70;99.90;;;;;;2053719;28;20190;-67
2023/05/14 20:20:09;;;;;;;6.90;4.30;;;9.70;99.90;;;;;;2047667;28;20187;-68
2023/05/14 20:21:11;;;;;;;5.45;3.60;;;9.60;99.90;;;;;;2056167;28;20309;-68
2023/05/14 20:22:12;;;;;;;5.10;3.90;;;9.60;99.90;;;;;;2046885;28;20234;-66
2023/05/14 20:23:13;;;;;;;5.40;3.27;;;9.60;99.90;;;;;;2043130;28;20726;-68
2023/05/14 20:24:13;;;;;;;5.33;3.30;;;9.70;99.90;;;;;;2048641;28;20579;-67
2023/05/14 20:25:15;;;;;;;6.57;3.65;;;9.70;99.90;;;;;;2059595;28;20234;-67
2023/05/14 20:26:15;;;;;;;4.10;3.50;;;9.70;99.90;;;;;;2051933;28;20230;-67
2023/05/14 20:27:16;;;;;;;5.00;4.00;;;9.80;99.90;;;;;;2039744;28;20347;-68
2023/05/14 20:28:17;;;;;;;4.47;3.17;;;9.90;99.90;;;;;;2036377;29;20307;-67
2023/05/14 20:29:17;;;;;;;5.93;3.57;;;9.90;99.90;;;;;;2042076;29;20238;-68
2023/05/14 20:30:20;;;;;;;4.77;3.20;;;10.00;99.90;;;;;;2052922;28;20282;-68
2023/05/14 20:31:21;;;;;;;5.65;3.30;;;10.00;99.90;;;;;;2060511;28;20226;-67